Time;durP1;ratioP1;P1;durP2;ratioP2;P2;SDS_P1;SDS_P2;PMS_P1;PMS_P2;Temp;Humidity;BMP_temperature;BMP_pressure;BME280_temperature;BME280_humidity;BME280_pressure;Samples;Min_cycle;Max_cycle;Signal;HPM_P1;HPM_P2
2022/05/25 00:02:00;;;;;;;3.60;1.10;;;12.80;99.90;;;;;;4999330;28;20495;-80
2022/05/25 00:04:27;;;;;;;2.50;0.90;;;12.70;99.90;;;;;;4989146;28;20475;-79
2022/05/25 00:06:54;;;;;;;2.00;1.03;;;12.70;99.90;;;;;;4999733;28;20837;-80
2022/05/25 00:09:21;;;;;;;3.87;1.20;;;12.70;99.90;;;;;;4999451;28;20459;-80
2022/05/25 00:11:50;;;;;;;3.37;1.10;;;12.60;99.90;;;;;;4999002;28;20510;-81
2022/05/25 00:14:17;;;;;;;3.33;1.20;;;12.60;99.90;;;;;;4999378;28;21034;-79
2022/05/25 00:16:44;;;;;;;3.00;1.17;;;12.60;99.90;;;;;;5001167;28;20452;-80
2022/05/25 00:21:55;;;;;;;3.07;1.13;;;12.50;99.90;;;;;;5001778;28;20491;-79
2022/05/25 00:24:22;;;;;;;2.80;1.20;;;12.50;99.90;;;;;;5000337;28;20538;-80
2022/05/25 00:26:50;;;;;;;2.90;1.30;;;12.40;99.90;;;;;;5001266;28;20541;-81
2022/05/25 00:29:17;;;;;;;2.70;1.07;;;12.40;99.90;;;;;;5000469;28;20950;-80
2022/05/25 00:31:44;;;;;;;3.00;1.10;;;12.40;99.90;;;;;;5000306;28;20485;-80
2022/05/25 00:34:11;;;;;;;3.10;1.40;;;12.30;99.90;;;;;;5001381;28;20477;-81
2022/05/25 00:36:38;;;;;;;3.13;1.30;;;12.30;99.90;;;;;;5009452;28;20455;-80
2022/05/25 00:39:06;;;;;;;3.50;1.67;;;12.30;99.90;;;;;;5005335;28;20516;-81
2022/05/25 00:41:33;;;;;;;2.87;1.47;;;12.30;99.90;;;;;;5000112;28;20587;-80
2022/05/25 00:44:01;;;;;;;5.40;1.40;;;12.30;99.90;;;;;;5000786;28;20473;-80
2022/05/25 00:46:30;;;;;;;2.60;1.20;;;12.20;99.90;;;;;;5001061;28;20454;-78
2022/05/25 00:49:01;;;;;;;3.20;1.40;;;12.20;99.90;;;;;;5000899;28;20475;-79
2022/05/25 00:51:41;;;;;;;2.33;1.23;;;12.20;99.90;;;;;;5000081;28;20460;-80
2022/05/25 00:54:12;;;;;;;3.73;1.47;;;12.20;99.90;;;;;;5000297;28;20478;-79
2022/05/25 00:56:43;;;;;;;2.67;1.30;;;12.10;99.90;;;;;;5000044;28;20507;-81
2022/05/25 00:59:16;;;;;;;4.40;1.63;;;12.10;99.90;;;;;;5012952;22;21061;-78
2022/05/25 01:01:43;;;;;;;3.60;1.37;;;12.00;99.90;;;;;;4964634;28;20459;-79
2022/05/25 01:04:11;;;;;;;4.27;1.53;;;12.00;99.90;;;;;;4965022;28;20546;-78
2022/05/25 01:06:51;;;;;;;2.47;1.20;;;11.90;99.90;;;;;;4958214;29;20447;-79
2022/05/25 01:09:27;;;;;;;3.20;1.50;;;11.90;99.90;;;;;;4965351;28;20472;-79
2022/05/25 01:12:05;;;;;;;7.00;1.67;;;11.90;99.90;;;;;;4978386;28;20466;-78
2022/05/25 01:14:50;;;;;;;5.83;1.43;;;11.90;99.90;;;;;;4973128;28;20462;-79
2022/05/25 01:17:27;;;;;;;2.70;1.43;;;11.90;99.90;;;;;;4975507;28;20455;-79
2022/05/25 01:20:16;;;;;;;2.83;1.30;;;11.80;99.90;;;;;;4979819;28;20556;-79
2022/05/25 01:23:18;;;;;;;3.93;1.70;;;11.90;99.90;;;;;;4972464;28;20473;-77
2022/05/25 01:26:13;;;;;;;3.57;1.70;;;11.80;99.90;;;;;;4950875;28;20988;-79
2022/05/25 01:28:56;;;;;;;3.10;1.63;;;11.80;99.90;;;;;;4982509;28;20483;-79
2022/05/25 01:31:28;;;;;;;5.23;1.77;;;11.80;99.90;;;;;;4973362;28;21010;-78
2022/05/25 01:33:59;;;;;;;3.10;2.33;;;11.70;99.90;;;;;;4972424;28;20452;-78
2022/05/25 01:36:32;;;;;;;5.03;1.77;;;11.80;99.90;;;;;;4970533;28;20455;-79
2022/05/25 01:39:05;;;;;;;5.03;2.30;;;11.70;99.90;;;;;;4982124;28;20544;-79
2022/05/25 01:41:40;;;;;;;5.23;1.90;;;11.70;99.90;;;;;;4974213;28;20460;-79
2022/05/25 01:44:12;;;;;;;3.43;2.43;;;11.70;99.90;;;;;;4962541;28;20452;-79
2022/05/25 01:46:44;;;;;;;4.90;2.20;;;11.70;99.90;;;;;;4967802;28;20466;-78
2022/05/25 01:49:15;;;;;;;6.47;2.73;;;11.70;99.90;;;;;;4964442;28;20537;-78
2022/05/25 01:51:46;;;;;;;5.40;3.10;;;11.70;99.90;;;;;;4966800;28;20546;-78
2022/05/25 01:54:16;;;;;;;4.90;2.80;;;11.70;99.90;;;;;;4965199;28;20927;-78
2022/05/25 01:56:48;;;;;;;5.17;2.87;;;11.70;99.90;;;;;;4979091;28;20967;-78
2022/05/25 01:59:17;;;;;;;4.50;2.20;;;11.70;99.90;;;;;;4978191;28;20570;-79
2022/05/25 02:04:39;;;;;;;6.43;3.10;;;11.70;99.90;;;;;;4966863;28;20451;-78
2022/05/25 02:07:15;;;;;;;4.10;2.63;;;11.70;99.90;;;;;;4976178;28;20444;-78
2022/05/25 02:10:11;;;;;;;5.50;4.13;;;11.70;99.90;;;;;;4979528;28;20624;-78
2022/05/25 02:12:51;;;;;;;3.57;2.43;;;11.70;99.90;;;;;;4952007;28;20504;-79
2022/05/25 02:15:28;;;;;;;4.47;2.90;;;11.70;99.90;;;;;;4971967;28;20455;-79
2022/05/25 02:18:04;;;;;;;3.60;2.80;;;11.70;99.90;;;;;;4962070;28;20453;-79
2022/05/25 02:20:38;;;;;;;4.80;2.50;;;11.70;99.90;;;;;;4958421;28;20458;-79
2022/05/25 02:23:11;;;;;;;6.00;3.00;;;11.80;99.90;;;;;;4975131;28;20483;-78
2022/05/25 02:25:44;;;;;;;4.17;2.83;;;11.80;99.90;;;;;;4977292;28;20557;-78
2022/05/25 02:28:17;;;;;;;4.37;2.77;;;11.70;99.90;;;;;;4964699;28;20834;-79
2022/05/25 02:30:47;;;;;;;4.27;2.87;;;11.70;99.90;;;;;;4962792;28;20455;-79
2022/05/25 02:33:22;;;;;;;5.20;3.00;;;11.70;99.90;;;;;;4979471;28;20461;-77
2022/05/25 02:35:50;;;;;;;5.70;3.13;;;11.80;99.90;;;;;;4966578;28;20454;-79
2022/05/25 02:38:18;;;;;;;4.50;2.73;;;11.70;99.90;;;;;;4961338;28;20473;-78
2022/05/25 02:40:45;;;;;;;5.17;2.80;;;11.80;99.90;;;;;;4963455;28;20484;-78
2022/05/25 02:43:12;;;;;;;3.20;2.40;;;11.70;99.90;;;;;;4980677;28;20578;-79
2022/05/25 02:45:40;;;;;;;5.50;3.00;;;11.70;99.90;;;;;;4965262;28;20989;-79
2022/05/25 02:48:07;;;;;;;6.27;3.57;;;11.70;99.90;;;;;;4973479;28;21016;-78
2022/05/25 02:50:36;;;;;;;4.00;2.73;;;11.70;99.90;;;;;;4974853;28;20454;-80
2022/05/25 02:53:04;;;;;;;5.50;3.37;;;11.70;99.90;;;;;;4980051;28;20458;-79
2022/05/25 02:55:31;;;;;;;4.37;2.60;;;11.70;99.90;;;;;;4980086;28;20459;-79
2022/05/25 02:57:59;;;;;;;4.77;3.30;;;11.60;99.90;;;;;;4961177;28;20460;-78
2022/05/25 03:00:26;;;;;;;3.57;2.53;;;11.60;99.90;;;;;;4960173;28;20456;-79
2022/05/25 03:02:53;;;;;;;5.03;2.60;;;11.60;99.90;;;;;;4972164;28;20479;-77
2022/05/25 03:05:20;;;;;;;4.70;3.07;;;11.60;99.90;;;;;;4977039;28;20460;-80
2022/05/25 03:07:48;;;;;;;5.33;3.17;;;11.60;99.90;;;;;;4961209;28;20483;-80
2022/05/25 03:10:15;;;;;;;3.17;2.17;;;11.60;99.90;;;;;;4961618;28;20459;-79
2022/05/25 03:12:42;;;;;;;8.20;2.90;;;11.50;99.90;;;;;;4970524;28;20445;-79
2022/05/25 03:15:09;;;;;;;4.10;2.80;;;11.50;99.90;;;;;;4974344;28;20467;-79
2022/05/25 03:17:36;;;;;;;3.70;2.90;;;11.40;99.90;;;;;;4974862;28;20465;-80
2022/05/25 03:20:04;;;;;;;7.60;2.80;;;11.50;99.90;;;;;;4973604;28;20468;-81
2022/05/25 03:22:34;;;;;;;3.13;2.33;;;11.50;99.90;;;;;;4970740;28;20488;-79
2022/05/25 03:25:02;;;;;;;6.10;3.67;;;11.50;99.90;;;;;;4973831;28;20483;-80
2022/05/25 03:27:29;;;;;;;5.90;2.60;;;11.50;99.90;;;;;;4989575;28;20464;-80
2022/05/25 03:29:56;;;;;;;8.60;3.00;;;11.50;99.90;;;;;;4993182;28;20464;-80
2022/05/25 03:32:22;;;;;;;4.10;2.70;;;11.40;99.90;;;;;;4986297;28;20480;-79
2022/05/25 03:34:50;;;;;;;4.77;3.17;;;11.40;99.90;;;;;;4966193;28;20510;-81
2022/05/25 03:37:17;;;;;;;5.40;3.30;;;11.40;99.90;;;;;;4958805;28;20485;-81
2022/05/25 03:39:43;;;;;;;4.23;3.13;;;11.40;99.90;;;;;;4970529;28;20482;-79
2022/05/25 03:42:15;;;;;;;3.80;2.80;;;11.40;99.90;;;;;;4963566;28;20460;-80
2022/05/25 03:44:42;;;;;;;6.83;3.70;;;11.40;99.90;;;;;;4957884;28;20453;-80
2022/05/25 03:47:09;;;;;;;5.93;3.37;;;11.40;99.90;;;;;;4960113;28;20459;-80
2022/05/25 03:49:36;;;;;;;5.13;2.77;;;11.40;99.90;;;;;;4958479;28;20477;-79
2022/05/25 03:52:04;;;;;;;5.40;3.67;;;11.40;99.90;;;;;;4967719;28;20453;-80
2022/05/25 03:54:31;;;;;;;6.13;3.87;;;11.40;99.90;;;;;;4976373;28;20458;-79
2022/05/25 03:56:58;;;;;;;4.57;2.90;;;11.40;99.90;;;;;;4975708;28;20483;-79
2022/05/25 03:59:26;;;;;;;4.10;3.07;;;11.40;99.90;;;;;;4969111;28;20512;-80
2022/05/25 04:01:53;;;;;;;5.17;2.97;;;11.50;99.90;;;;;;4964152;28;20515;-80
2022/05/25 04:04:20;;;;;;;4.43;3.30;;;11.40;99.90;;;;;;4968350;28;20499;-80
2022/05/25 04:06:49;;;;;;;3.47;2.47;;;11.50;99.90;;;;;;4958746;28;20842;-79
2022/05/25 04:09:17;;;;;;;5.13;3.27;;;11.50;99.90;;;;;;4956380;28;20481;-80
2022/05/25 04:11:45;;;;;;;5.53;2.80;;;11.60;99.90;;;;;;4961916;28;20532;-79
2022/05/25 04:14:15;;;;;;;6.50;3.70;;;11.60;99.90;;;;;;4968780;28;20946;-80
2022/05/25 04:16:43;;;;;;;4.87;3.50;;;11.70;99.90;;;;;;4961681;28;20486;-80
2022/05/25 04:19:10;;;;;;;4.77;2.70;;;11.70;99.90;;;;;;4970896;28;20611;-78
2022/05/25 04:21:37;;;;;;;6.57;3.20;;;11.80;99.90;;;;;;4960336;28;20456;-78
2022/05/25 04:24:04;;;;;;;4.60;3.37;;;11.80;99.90;;;;;;4964132;28;20489;-80
2022/05/25 04:26:31;;;;;;;4.67;3.10;;;11.90;99.90;;;;;;4961064;28;20458;-80
2022/05/25 04:28:58;;;;;;;6.00;3.80;;;12.00;99.90;;;;;;4969382;28;20537;-79
2022/05/25 04:31:25;;;;;;;7.10;3.60;;;12.10;99.90;;;;;;4961398;28;20473;-80
2022/05/25 04:33:53;;;;;;;6.43;3.60;;;12.10;99.90;;;;;;4963027;28;20446;-79
2022/05/25 04:36:20;;;;;;;9.40;3.87;;;12.20;99.90;;;;;;4980399;28;20493;-79
2022/05/25 04:38:47;;;;;;;6.00;3.70;;;12.30;99.90;;;;;;4975322;28;20479;-81
2022/05/25 04:41:14;;;;;;;7.17;3.40;;;12.30;99.90;;;;;;4966824;28;20460;-79
2022/05/25 04:43:41;;;;;;;6.07;3.47;;;12.50;99.90;;;;;;4976846;28;20489;-79
2022/05/25 04:46:10;;;;;;;5.37;3.30;;;12.50;99.90;;;;;;4962209;28;20817;-80
2022/05/25 04:48:37;;;;;;;8.90;3.77;;;12.60;99.90;;;;;;4961889;28;20540;-80
2022/05/25 04:51:05;;;;;;;5.13;3.33;;;12.70;99.90;;;;;;4965753;28;20493;-80
2022/05/25 04:53:32;;;;;;;7.00;3.73;;;12.70;99.90;;;;;;4970875;28;20450;-79
2022/05/25 04:58:45;;;;;;;7.27;4.03;;;12.70;99.90;;;;;;4971459;28;20500;-80
2022/05/25 05:01:16;;;;;;;4.47;4.00;;;12.70;99.90;;;;;;4967160;28;20962;-79
2022/05/25 05:03:43;;;;;;;7.40;3.87;;;12.70;99.90;;;;;;4975309;28;20486;-79
2022/05/25 05:06:11;;;;;;;10.60;4.30;;;12.70;99.90;;;;;;4981780;28;20464;-81
2022/05/25 05:08:39;;;;;;;7.17;3.90;;;12.80;99.90;;;;;;4972203;28;20477;-82
2022/05/25 05:11:09;;;;;;;5.77;3.60;;;12.70;99.90;;;;;;4968473;28;20471;-79
2022/05/25 05:13:36;;;;;;;4.40;2.97;;;12.70;99.90;;;;;;4981177;28;20479;-80
2022/05/25 05:16:05;;;;;;;5.20;3.43;;;12.80;99.90;;;;;;4979236;28;20459;-80
2022/05/25 05:18:32;;;;;;;6.03;4.50;;;12.80;99.90;;;;;;4963624;28;20484;-80
2022/05/25 05:20:59;;;;;;;5.20;3.47;;;12.80;99.90;;;;;;4966906;28;20466;-79
2022/05/25 05:23:28;;;;;;;6.87;4.30;;;12.90;99.90;;;;;;4960923;28;20485;-80
2022/05/25 05:25:54;;;;;;;6.03;3.50;;;13.10;99.90;;;;;;4968926;28;20464;-84
2022/05/25 05:28:25;;;;;;;7.60;4.30;;;13.20;99.90;;;;;;4969440;28;20474;-82
2022/05/25 05:30:54;;;;;;;4.40;3.13;;;13.10;99.90;;;;;;4964570;28;20466;-80
2022/05/25 05:33:23;;;;;;;5.80;3.40;;;13.20;99.90;;;;;;4964809;28;20447;-82
2022/05/25 05:35:53;;;;;;;5.63;3.90;;;13.10;99.90;;;;;;4966193;28;20462;-81
2022/05/25 05:38:21;;;;;;;6.37;3.77;;;13.30;99.90;;;;;;4965336;28;20461;-83
2022/05/25 05:40:58;;;;;;;5.17;3.47;;;13.40;99.90;;;;;;4965889;28;20460;-81
2022/05/25 05:43:25;;;;;;;5.60;3.83;;;13.50;99.90;;;;;;4963437;28;20579;-82
2022/05/25 05:45:54;;;;;;;5.93;3.77;;;13.50;99.90;;;;;;4962183;28;20459;-81
2022/05/25 05:48:23;;;;;;;6.83;3.50;;;13.50;99.90;;;;;;4993069;28;20480;-80
2022/05/25 05:50:54;;;;;;;5.50;3.60;;;13.50;99.90;;;;;;4965511;28;20446;-82
2022/05/25 05:53:26;;;;;;;4.80;3.00;;;13.50;99.90;;;;;;4963459;28;20477;-80
2022/05/25 05:55:54;;;;;;;6.23;3.80;;;13.40;99.90;;;;;;4959514;29;20452;-80
2022/05/25 05:58:21;;;;;;;7.17;3.93;;;13.50;99.90;;;;;;4950338;28;20491;-82
2022/05/25 06:00:48;;;;;;;5.03;3.50;;;13.40;99.90;;;;;;4964117;28;20537;-81
2022/05/25 06:03:15;;;;;;;5.03;2.97;;;13.50;99.90;;;;;;4966733;28;20529;-82
2022/05/25 06:05:41;;;;;;;12.50;4.23;;;13.60;99.90;;;;;;4960402;28;20552;-79
2022/05/25 06:08:10;;;;;;;5.57;2.57;;;13.60;99.90;;;;;;4957042;28;21016;-80
2022/05/25 06:10:38;;;;;;;5.10;2.57;;;13.70;99.90;;;;;;4956131;28;20734;-81
2022/05/25 06:13:07;;;;;;;4.20;3.20;;;13.80;99.90;;;;;;4966113;28;20460;-82
2022/05/25 06:21:03;;;;;;;4.20;2.37;;;13.90;99.90;;;;;;4963461;28;20442;-79
2022/05/25 06:23:30;;;;;;;4.60;2.23;;;14.00;99.90;;;;;;4959799;28;20531;-79
2022/05/25 06:25:57;;;;;;;3.63;1.90;;;14.10;99.90;;;;;;4967141;28;20542;-79
2022/05/25 06:28:26;;;;;;;5.27;2.10;;;14.10;99.90;;;;;;4975613;28;20558;-78
2022/05/25 06:30:53;;;;;;;4.43;1.70;;;14.20;99.90;;;;;;4977241;28;20532;-79
2022/05/25 06:33:20;;;;;;;3.20;1.83;;;14.20;99.90;;;;;;4967271;28;20467;-80
2022/05/25 06:35:47;;;;;;;5.93;1.40;;;14.20;99.90;;;;;;4971924;28;20479;-80
2022/05/25 06:38:14;;;;;;;2.73;1.40;;;14.40;99.90;;;;;;4975876;28;20468;-79
2022/05/25 06:40:41;;;;;;;3.93;1.60;;;14.30;99.90;;;;;;4971050;28;20459;-79
2022/05/25 06:43:08;;;;;;;2.60;1.37;;;14.40;99.90;;;;;;4961148;28;20532;-81
2022/05/25 06:45:36;;;;;;;4.10;1.40;;;14.50;99.90;;;;;;4963915;28;20542;-79
2022/05/25 06:48:04;;;;;;;3.60;1.67;;;14.50;99.90;;;;;;4960498;28;20570;-79
2022/05/25 06:50:31;;;;;;;5.83;1.73;;;14.60;99.90;;;;;;4971533;28;20480;-80
2022/05/25 06:52:57;;;;;;;3.57;1.40;;;14.60;99.90;;;;;;4962915;28;20456;-79
2022/05/25 06:55:24;;;;;;;3.83;1.57;;;14.60;99.90;;;;;;4971247;28;20822;-80
2022/05/25 06:57:52;;;;;;;4.73;1.50;;;14.60;99.90;;;;;;4979664;28;20455;-79
2022/05/25 07:00:19;;;;;;;6.77;1.83;;;14.70;99.90;;;;;;4993142;22;20911;-83
2022/05/25 07:02:47;;;;;;;3.47;1.17;;;14.80;99.90;;;;;;4987304;28;20877;-83
2022/05/25 07:05:14;;;;;;;3.00;1.30;;;14.90;99.90;;;;;;4986317;28;20503;-81
2022/05/25 07:07:41;;;;;;;3.23;1.50;;;14.90;99.90;;;;;;4986120;28;20456;-80
2022/05/25 07:10:09;;;;;;;2.57;1.20;;;15.00;99.90;;;;;;5001563;28;20464;-80
2022/05/25 07:12:35;;;;;;;6.53;1.30;;;15.00;99.90;;;;;;4983829;28;20992;-80
2022/05/25 07:15:02;;;;;;;4.80;1.60;;;14.90;99.90;;;;;;4997508;28;20515;-85
2022/05/25 07:17:30;;;;;;;2.20;1.00;;;15.10;99.90;;;;;;4978430;28;20453;-82
2022/05/25 07:19:58;;;;;;;2.13;1.10;;;15.20;99.90;;;;;;4983284;28;20522;-81
2022/05/25 07:22:25;;;;;;;2.97;1.10;;;15.20;99.90;;;;;;4981464;28;20471;-82
2022/05/25 07:24:52;;;;;;;3.27;1.10;;;15.40;99.90;;;;;;4985474;28;20544;-81
2022/05/25 07:27:19;;;;;;;2.20;1.10;;;15.50;99.90;;;;;;4977212;28;20462;-82
2022/05/25 07:29:45;;;;;;;2.50;1.13;;;15.70;99.90;;;;;;4987205;28;20470;-81
2022/05/25 07:32:13;;;;;;;3.60;1.20;;;15.70;99.90;;;;;;4984753;28;20485;-81
2022/05/25 07:34:44;;;;;;;2.00;0.87;;;15.80;99.90;;;;;;4979478;28;20471;-82
2022/05/25 07:37:16;;;;;;;3.27;1.27;;;15.90;99.90;;;;;;4988400;28;20458;-83
2022/05/25 07:39:48;;;;;;;3.40;1.00;;;16.00;99.90;;;;;;4981822;28;20443;-86
2022/05/25 07:42:17;;;;;;;6.23;1.13;;;16.00;99.90;;;;;;5015900;28;20519;-84
2022/05/25 07:44:49;;;;;;;4.33;1.23;;;16.10;99.90;;;;;;4991342;28;20479;-84
2022/05/25 07:47:16;;;;;;;2.20;1.00;;;16.00;99.90;;;;;;4989901;28;20444;-82
2022/05/25 07:49:43;;;;;;;2.70;1.30;;;16.00;99.90;;;;;;4999209;28;20456;-82
2022/05/25 07:52:10;;;;;;;5.40;1.13;;;16.00;99.90;;;;;;4989452;28;20489;-83
2022/05/25 07:54:41;;;;;;;3.80;1.10;;;16.20;99.90;;;;;;4996567;28;20456;-81
2022/05/25 07:57:07;;;;;;;2.70;1.03;;;16.30;99.90;;;;;;4999922;28;20461;-81
2022/05/25 07:59:34;;;;;;;2.33;0.90;;;16.30;99.90;;;;;;5000238;28;20460;-81
2022/05/25 08:07:37;;;;;;;1.90;1.00;;;16.50;99.90;;;;;;4982699;28;20452;-81
2022/05/25 08:10:09;;;;;;;3.30;1.10;;;16.60;99.90;;;;;;5000046;28;20827;-82
2022/05/25 08:12:38;;;;;;;3.30;1.20;;;16.70;99.90;;;;;;4985820;28;20464;-81
2022/05/25 08:15:07;;;;;;;2.80;0.90;;;16.90;99.90;;;;;;4979242;28;20831;-81
2022/05/25 08:17:34;;;;;;;2.80;1.07;;;17.00;99.90;;;;;;4981997;28;20476;-82
2022/05/25 08:20:01;;;;;;;3.80;1.40;;;17.30;99.90;;;;;;4999758;28;20548;-84
2022/05/25 08:22:28;;;;;;;3.28;1.27;;;17.20;99.90;;;;;;4998560;28;20459;-81
2022/05/25 08:24:56;;;;;;;2.70;1.10;;;17.40;99.90;;;;;;5002531;28;20298;-81
2022/05/25 08:27:24;;;;;;;3.33;1.10;;;17.60;99.90;;;;;;4993382;28;20526;-82
2022/05/25 08:29:51;;;;;;;3.57;1.20;;;17.80;99.90;;;;;;4985012;28;20463;-84
2022/05/25 08:32:18;;;;;;;5.50;1.00;;;18.10;99.90;;;;;;4985304;28;20465;-81
2022/05/25 08:34:44;;;;;;;2.83;0.97;;;18.30;99.90;;;;;;4984440;28;20478;-82
2022/05/25 08:37:12;;;;;;;5.00;1.00;;;18.50;99.90;;;;;;4988741;28;20538;-81
2022/05/25 08:39:39;;;;;;;3.70;1.10;;;18.60;99.90;;;;;;4983002;28;20466;-81
2022/05/25 08:42:09;;;;;;;3.17;1.00;;;18.70;99.90;;;;;;4982467;28;20982;-82
2022/05/25 08:44:38;;;;;;;3.17;1.07;;;18.50;99.90;;;;;;4995900;28;20490;-81
2022/05/25 08:47:08;;;;;;;3.70;1.20;;;18.90;99.90;;;;;;5003296;28;20459;-83
2022/05/25 08:49:38;;;;;;;3.30;0.90;;;19.00;99.90;;;;;;5001880;28;20438;-83
2022/05/25 08:52:16;;;;;;;4.80;1.10;;;19.00;99.90;;;;;;5001679;28;20473;-84
2022/05/25 08:54:43;;;;;;;3.67;1.00;;;19.20;99.90;;;;;;5003818;28;20451;-82
2022/05/25 08:57:17;;;;;;;2.50;1.03;;;19.40;99.90;;;;;;5003365;28;20495;-82
2022/05/25 08:59:53;;;;;;;3.50;1.20;;;19.40;99.90;;;;;;5000464;28;20456;-83
2022/05/25 09:02:28;;;;;;;3.50;0.90;;;19.40;99.90;;;;;;4981655;28;20453;-83
2022/05/25 09:05:03;;;;;;;2.40;1.10;;;19.20;99.90;;;;;;4994538;28;20487;-83
2022/05/25 09:07:36;;;;;;;2.63;0.77;;;19.50;99.90;;;;;;5003390;28;20476;-83
2022/05/25 09:10:03;;;;;;;4.43;0.93;;;19.70;99.90;;;;;;4965805;28;20489;-83
2022/05/25 09:12:34;;;;;;;2.33;0.90;;;20.10;99.90;;;;;;4963762;29;20517;-82
2022/05/25 09:15:07;;;;;;;3.40;0.93;;;20.10;99.90;;;;;;4964497;29;20460;-82
2022/05/25 09:17:40;;;;;;;3.60;0.90;;;20.30;99.90;;;;;;4966349;28;20563;-83
2022/05/25 09:20:12;;;;;;;2.37;0.80;;;20.60;99.90;;;;;;5005042;28;20523;-83
2022/05/25 09:22:41;;;;;;;2.90;1.07;;;20.70;99.90;;;;;;5003141;28;20451;-83
2022/05/25 09:25:11;;;;;;;2.30;0.80;;;20.90;99.90;;;;;;5002852;28;20505;-82
2022/05/25 09:27:41;;;;;;;2.13;0.87;;;20.80;99.90;;;;;;5003576;28;20818;-82
2022/05/25 09:30:11;;;;;;;4.07;0.80;;;20.70;99.90;;;;;;4964849;28;20803;-84
2022/05/25 09:32:50;;;;;;;2.17;0.70;;;20.60;99.90;;;;;;4966004;29;20459;-83
2022/05/25 09:35:20;;;;;;;2.07;0.80;;;20.80;99.90;;;;;;4966381;29;20455;-82
2022/05/25 09:37:52;;;;;;;2.60;0.73;;;20.90;99.90;;;;;;4967195;28;20477;-81
2022/05/25 09:40:23;;;;;;;4.33;0.80;;;21.20;99.90;;;;;;4963254;28;20490;-82
2022/05/25 09:42:52;;;;;;;4.17;1.43;;;21.20;99.90;;;;;;4979807;28;20522;-81
2022/05/25 09:45:21;;;;;;;2.57;0.83;;;21.60;99.90;;;;;;4982804;28;20560;-82
2022/05/25 09:47:50;;;;;;;2.77;0.90;;;21.90;99.90;;;;;;4983360;28;20481;-82
2022/05/25 09:50:28;;;;;;;2.20;0.90;;;22.10;99.90;;;;;;5001519;28;20482;-82
2022/05/25 09:52:56;;;;;;;2.10;0.80;;;22.50;99.90;;;;;;5003409;28;20856;-82
2022/05/25 09:55:26;;;;;;;2.20;0.90;;;22.70;99.90;;;;;;5004006;28;20450;-83
2022/05/25 09:57:58;;;;;;;2.17;0.80;;;22.80;99.90;;;;;;5001711;28;20490;-82
2022/05/25 10:00:42;;;;;;;2.27;0.90;;;23.10;99.90;;;;;;5000867;28;20486;-83
2022/05/25 10:03:12;;;;;;;3.70;0.90;;;23.40;99.90;;;;;;5000926;28;20521;-83
2022/05/25 10:06:01;;;;;;;2.63;0.70;;;24.00;99.90;;;;;;5003078;28;20528;-83
2022/05/25 10:08:32;;;;;;;2.73;0.80;;;23.90;99.90;;;;;;4992264;28;20483;-83
2022/05/25 10:11:10;;;;;;;3.10;0.80;;;23.80;99.90;;;;;;4982730;28;20472;-82
2022/05/25 10:13:40;;;;;;;2.30;0.80;;;24.30;99.90;;;;;;4985603;28;20898;-83
2022/05/25 10:16:21;;;;;;;1.90;0.80;;;24.60;99.90;;;;;;4981362;28;20459;-82
2022/05/25 10:18:49;;;;;;;2.10;0.77;;;25.00;99.90;;;;;;4981977;28;20435;-82
2022/05/25 10:21:28;;;;;;;2.53;0.80;;;25.00;99.20;;;;;;4984604;28;20472;-83
2022/05/25 10:23:57;;;;;;;4.37;0.90;;;25.20;99.90;;;;;;4982859;28;20443;-82
2022/05/25 10:26:33;;;;;;;1.83;0.70;;;25.70;99.90;;;;;;4982993;28;20499;-83
2022/05/25 10:29:06;;;;;;;3.10;0.90;;;25.70;97.80;;;;;;4984233;28;20459;-83
2022/05/25 10:37:18;;;;;;;2.10;0.80;;;25.40;91.40;;;;;;5003011;28;20488;-82
2022/05/25 10:39:58;;;;;;;2.77;0.80;;;25.00;91.30;;;;;;5000175;28;20451;-83
2022/05/25 10:42:26;;;;;;;4.90;0.87;;;25.30;90.00;;;;;;4984228;28;20515;-83
2022/05/25 10:45:02;;;;;;;3.80;0.73;;;24.90;87.10;;;;;;4983025;28;20503;-81
2022/05/25 10:47:46;;;;;;;2.10;0.80;;;25.60;91.80;;;;;;4982769;28;20495;-83
2022/05/25 10:50:20;;;;;;;2.80;1.40;;;25.60;87.50;;;;;;4988894;28;20487;-82
2022/05/25 10:52:50;;;;;;;3.50;0.80;;;24.80;90.30;;;;;;5003079;28;20484;-82
2022/05/25 10:55:18;;;;;;;3.50;0.90;;;25.00;92.30;;;;;;5003189;28;20905;-83
2022/05/25 10:58:09;;;;;;;2.87;0.70;;;24.60;87.70;;;;;;5002052;28;20893;-82
2022/05/25 11:00:52;;;;;;;2.43;0.70;;;24.70;90.00;;;;;;4994041;28;20482;-82
2022/05/25 11:03:56;;;;;;;2.30;1.00;;;25.00;88.40;;;;;;4984141;28;20451;-83
2022/05/25 11:06:52;;;;;;;2.50;0.97;;;25.80;91.00;;;;;;4925316;29;20493;-83
2022/05/25 11:09:32;;;;;;;2.50;1.57;;;26.20;87.90;;;;;;4984482;28;20463;-83
2022/05/25 11:12:05;;;;;;;2.23;1.10;;;25.50;82.10;;;;;;4981723;28;20994;-82
2022/05/25 11:14:44;;;;;;;2.73;1.10;;;25.20;89.40;;;;;;4984528;28;20469;-82
2022/05/25 11:17:20;;;;;;;3.80;0.93;;;25.70;81.40;;;;;;4992411;28;20443;-81
2022/05/25 11:19:59;;;;;;;2.73;0.70;;;26.10;88.50;;;;;;4983448;28;20455;-82
2022/05/25 11:22:35;;;;;;;2.50;1.10;;;26.90;85.90;;;;;;4985764;28;20464;-83
2022/05/25 11:25:32;;;;;;;3.63;0.87;;;27.70;85.80;;;;;;4984467;28;20498;-81
2022/05/25 11:28:15;;;;;;;3.03;0.70;;;27.40;81.70;;;;;;4984973;28;20534;-83
2022/05/25 11:30:53;;;;;;;1.80;0.70;;;27.60;81.80;;;;;;4986823;28;20466;-83
2022/05/25 11:33:34;;;;;;;2.27;0.77;;;28.30;76.40;;;;;;4986279;28;20443;-82
2022/05/25 11:36:11;;;;;;;2.30;0.80;;;28.70;80.70;;;;;;4993221;28;20816;-83
2022/05/25 11:39:03;;;;;;;4.67;0.90;;;29.20;66.90;;;;;;5010907;28;20469;-84
2022/05/25 11:41:39;;;;;;;2.20;0.70;;;28.40;67.60;;;;;;5004764;28;20484;-83
2022/05/25 11:44:27;;;;;;;2.20;1.00;;;28.00;68.50;;;;;;5006339;28;20461;-83
2022/05/25 11:47:03;;;;;;;2.30;0.80;;;27.60;72.90;;;;;;5006729;28;20492;-82
2022/05/25 11:49:59;;;;;;;2.83;0.80;;;28.50;69.40;;;;;;5005543;28;20518;-83
2022/05/25 11:53:00;;;;;;;1.90;0.60;;;29.90;69.80;;;;;;4988996;28;20521;-83
2022/05/25 11:55:32;;;;;;;2.77;1.00;;;30.20;66.40;;;;;;4987453;28;20451;-84
2022/05/25 11:58:12;;;;;;;2.77;0.90;;;28.60;63.00;;;;;;4985937;28;20455;-83
2022/05/25 12:00:48;;;;;;;2.33;0.77;;;27.50;63.50;;;;;;4984590;28;20857;-83
2022/05/25 12:03:54;;;;;;;2.60;0.83;;;27.50;68.60;;;;;;4967423;29;20467;-83
2022/05/25 12:06:44;;;;;;;2.83;0.77;;;27.90;66.00;;;;;;4966454;28;20484;-85
2022/05/25 12:09:26;;;;;;;2.33;0.70;;;29.10;61.60;;;;;;4985432;28;20459;-83
2022/05/25 12:12:01;;;;;;;2.40;0.80;;;29.80;66.90;;;;;;4985715;28;20479;-84
2022/05/25 12:14:40;;;;;;;2.27;0.77;;;30.80;59.10;;;;;;4986576;28;20477;-85
2022/05/25 12:17:20;;;;;;;2.47;0.80;;;31.10;60.70;;;;;;4977256;28;20566;-85
2022/05/25 12:19:49;;;;;;;4.00;0.73;;;31.20;63.40;;;;;;4987767;28;20449;-84
2022/05/25 12:22:21;;;;;;;2.20;1.03;;;30.70;62.10;;;;;;4996899;28;20481;-84
2022/05/25 12:24:53;;;;;;;2.93;0.90;;;29.80;59.00;;;;;;4984582;28;20447;-85
2022/05/25 12:27:25;;;;;;;2.23;0.70;;;30.30;59.50;;;;;;4984300;28;20498;-84
2022/05/25 12:32:40;;;;;;;2.30;0.80;;;29.70;59.90;;;;;;5085315;22;20501;-82
2022/05/25 12:35:25;;;;;;;1.93;0.80;;;30.40;62.40;;;;;;5010251;28;20837;-82
2022/05/25 12:37:53;;;;;;;2.37;0.80;;;30.70;56.90;;;;;;5006299;28;20459;-84
2022/05/25 12:40:46;;;;;;;2.20;0.90;;;31.20;55.80;;;;;;5009885;28;20487;-84
2022/05/25 12:43:55;;;;;;;2.80;0.80;;;32.20;60.50;;;;;;5005638;28;20489;-84
2022/05/25 12:49:48;;;;;;;2.00;0.73;;;32.10;55.00;;;;;;5013294;28;20457;-83
2022/05/25 12:52:43;;;;;;;3.03;0.80;;;32.80;55.10;;;;;;5007808;28;20533;-81
2022/05/25 12:55:32;;;;;;;7.10;1.50;;;33.60;53.60;;;;;;4976333;28;20521;-81
2022/05/25 12:58:02;;;;;;;1.90;0.70;;;32.50;52.30;;;;;;5007297;28;20462;-82
2022/05/25 13:00:36;;;;;;;3.67;1.10;;;30.80;54.10;;;;;;5005333;28;20481;-80
2022/05/25 13:03:40;;;;;;;4.90;1.10;;;27.70;54.00;;;;;;5009955;28;20453;-82
2022/05/25 13:06:08;;;;;;;3.30;0.83;;;27.40;54.80;;;;;;4982323;28;20489;-81
2022/05/25 13:09:09;;;;;;;3.00;1.40;;;27.70;56.40;;;;;;5006832;28;20450;-81
2022/05/25 13:11:46;;;;;;;3.20;1.03;;;27.80;56.40;;;;;;5001705;28;20478;-83
2022/05/25 13:14:56;;;;;;;3.10;1.13;;;27.60;57.20;;;;;;5045771;22;20505;-78
2022/05/25 13:17:47;;;;;;;2.67;0.80;;;26.50;57.00;;;;;;5024011;28;20465;-78
2022/05/25 13:20:46;;;;;;;2.97;0.80;;;25.60;56.80;;;;;;5022200;28;20481;-78
2022/05/25 13:23:53;;;;;;;3.00;0.90;;;24.50;58.90;;;;;;5024812;28;20470;-78
2022/05/25 13:26:30;;;;;;;2.20;0.90;;;23.80;60.30;;;;;;5022581;28;20485;-77
2022/05/25 13:29:04;;;;;;;3.60;0.90;;;23.20;60.10;;;;;;5019447;28;20633;-78
2022/05/25 13:31:39;;;;;;;3.60;1.00;;;23.20;62.00;;;;;;5018157;28;20453;-78
2022/05/25 13:34:10;;;;;;;2.30;0.90;;;23.80;66.90;;;;;;5019762;28;20545;-78
2022/05/25 13:36:44;;;;;;;3.07;0.80;;;24.00;63.20;;;;;;5018371;28;20461;-78
2022/05/25 13:39:17;;;;;;;2.40;0.80;;;23.90;62.50;;;;;;5018788;28;20518;-78
2022/05/25 13:41:49;;;;;;;2.47;0.80;;;23.30;62.00;;;;;;5022913;28;20457;-77
2022/05/25 13:44:20;;;;;;;1.80;0.70;;;23.20;60.00;;;;;;5021585;28;20484;-79
2022/05/25 13:46:52;;;;;;;2.00;0.70;;;23.40;62.20;;;;;;5023335;28;20477;-78